Terminal Aerodrome Forecast
Issued by NWS Mt. Holly, NJ

Current Version | Previous Version | Text Only | Print | Product List | Glossary On
Versions: 1 2 3 4 5 6 7 8 9 10 11 12 13 14 15 16 17 18 19 20
318
FTUS41 KPHI 142347
TAFACY
TAF
KACY 142347Z 1500/1524 33005KT P6SM FEW250
     FM150200 VRB02KT P6SM BKN250
     FM151100 12005KT P6SM OVC070
      TEMPO 1515/1517 6SM -SN OVC035
     FM151700 15007KT 2SM -SN OVC025
     FM151900 11006KT 3SM -SNPL OVC012
     FM152100 08005KT 4SM -RA OVC008=

USA.gov is the U.S. government's official web portal to all federal, state and local government web resources and services.